sensor_id;sensor_type;location;lat;lon;timestamp;temperature;humidity
14349;DHT22;7258;50.376;8.742;2024-01-30T00:01:30;0.60;99.90
14349;DHT22;7258;50.376;8.742;2024-01-30T00:03:33;0.60;99.90
14349;DHT22;7258;50.376;8.742;2024-01-30T00:05:37;0.50;99.90
14349;DHT22;7258;50.376;8.742;2024-01-30T00:07:40;0.40;99.90
14349;DHT22;7258;50.376;8.742;2024-01-30T00:09:45;0.40;99.90
14349;DHT22;7258;50.376;8.742;2024-01-30T00:11:48;0.30;99.90
14349;DHT22;7258;50.376;8.742;2024-01-30T00:13:52;0.40;99.90
14349;DHT22;7258;50.376;8.742;2024-01-30T00:15:56;0.40;99.90
14349;DHT22;7258;50.376;8.742;2024-01-30T00:17:59;0.50;99.90
14349;DHT22;7258;50.376;8.742;2024-01-30T00:20:03;0.60;99.90
14349;DHT22;7258;50.376;8.742;2024-01-30T00:22:09;0.70;99.90
14349;DHT22;7258;50.376;8.742;2024-01-30T00:24:12;0.90;99.90
14349;DHT22;7258;50.376;8.742;2024-01-30T00:26:14;0.90;99.90
14349;DHT22;7258;50.376;8.742;2024-01-30T00:28:18;1.00;99.90
14349;DHT22;7258;50.376;8.742;2024-01-30T00:30:21;1.00;99.90
14349;DHT22;7258;50.376;8.742;2024-01-30T00:32:24;1.00;99.90
14349;DHT22;7258;50.376;8.742;2024-01-30T00:34:26;1.00;99.90
14349;DHT22;7258;50.376;8.742;2024-01-30T00:36:29;1.00;99.90
14349;DHT22;7258;50.376;8.742;2024-01-30T00:38:33;1.00;99.90
14349;DHT22;7258;50.376;8.742;2024-01-30T00:40:36;1.00;99.90
14349;DHT22;7258;50.376;8.742;2024-01-30T00:42:38;1.00;99.90
14349;DHT22;7258;50.376;8.742;2024-01-30T00:44:41;0.90;99.90
14349;DHT22;7258;50.376;8.742;2024-01-30T00:46:45;0.90;99.90
14349;DHT22;7258;50.376;8.742;2024-01-30T00:48:47;1.00;99.90
14349;DHT22;7258;50.376;8.742;2024-01-30T00:50:50;1.00;99.90
14349;DHT22;7258;50.376;8.742;2024-01-30T00:52:52;1.00;99.90
14349;DHT22;7258;50.376;8.742;2024-01-30T00:54:56;1.00;99.90
14349;DHT22;7258;50.376;8.742;2024-01-30T00:56:59;1.00;99.90
14349;DHT22;7258;50.376;8.742;2024-01-30T00:59:02;0.90;99.90
14349;DHT22;7258;50.376;8.742;2024-01-30T01:01:05;0.80;99.90
14349;DHT22;7258;50.376;8.742;2024-01-30T01:03:09;0.70;99.90
14349;DHT22;7258;50.376;8.742;2024-01-30T01:05:12;0.50;99.90
14349;DHT22;7258;50.376;8.742;2024-01-30T01:07:15;0.40;99.90
14349;DHT22;7258;50.376;8.742;2024-01-30T01:09:18;0.30;99.90
14349;DHT22;7258;50.376;8.742;2024-01-30T01:11:22;0.20;99.90
14349;DHT22;7258;50.376;8.742;2024-01-30T01:13:25;0.10;99.90
14349;DHT22;7258;50.376;8.742;2024-01-30T01:15:28;0.00;99.90
14349;DHT22;7258;50.376;8.742;2024-01-30T01:17:31;-0.10;99.90
14349;DHT22;7258;50.376;8.742;2024-01-30T01:19:34;-0.20;99.90
14349;DHT22;7258;50.376;8.742;2024-01-30T01:21:37;-0.20;99.90
14349;DHT22;7258;50.376;8.742;2024-01-30T01:23:41;-0.30;99.90
14349;DHT22;7258;50.376;8.742;2024-01-30T01:25:43;-0.30;99.90
14349;DHT22;7258;50.376;8.742;2024-01-30T01:27:47;-0.40;99.90
14349;DHT22;7258;50.376;8.742;2024-01-30T01:29:53;-0.40;99.90
14349;DHT22;7258;50.376;8.742;2024-01-30T01:31:56;-0.50;99.90
14349;DHT22;7258;50.376;8.742;2024-01-30T01:33:59;-0.50;99.90
14349;DHT22;7258;50.376;8.742;2024-01-30T01:36:02;-0.60;99.90
14349;DHT22;7258;50.376;8.742;2024-01-30T01:38:04;-0.60;99.90
14349;DHT22;7258;50.376;8.742;2024-01-30T01:40:08;-0.60;99.90
14349;DHT22;7258;50.376;8.742;2024-01-30T01:42:11;-0.60;99.90
14349;DHT22;7258;50.376;8.742;2024-01-30T01:44:15;-0.60;99.90
14349;DHT22;7258;50.376;8.742;2024-01-30T01:46:18;-0.60;99.90
14349;DHT22;7258;50.376;8.742;2024-01-30T01:48:21;-0.60;99.90
14349;DHT22;7258;50.376;8.742;2024-01-30T01:50:24;-0.60;99.90
14349;DHT22;7258;50.376;8.742;2024-01-30T01:52:30;-0.70;99.90
14349;DHT22;7258;50.376;8.742;2024-01-30T01:54:32;-0.70;99.90
14349;DHT22;7258;50.376;8.742;2024-01-30T01:56:35;-0.70;99.90
14349;DHT22;7258;50.376;8.742;2024-01-30T01:58:40;-0.70;99.90
14349;DHT22;7258;50.376;8.742;2024-01-30T02:00:44;-0.70;99.90
14349;DHT22;7258;50.376;8.742;2024-01-30T02:02:47;-0.70;99.90
14349;DHT22;7258;50.376;8.742;2024-01-30T02:04:52;-0.70;99.90
14349;DHT22;7258;50.376;8.742;2024-01-30T02:06:55;-0.70;99.90
14349;DHT22;7258;50.376;8.742;2024-01-30T02:08:58;-0.70;99.90
14349;DHT22;7258;50.376;8.742;2024-01-30T02:11:01;-0.70;99.90
14349;DHT22;7258;50.376;8.742;2024-01-30T02:13:04;-0.70;99.90
14349;DHT22;7258;50.376;8.742;2024-01-30T02:15:07;-0.70;99.90
14349;DHT22;7258;50.376;8.742;2024-01-30T02:17:11;-0.80;99.90
14349;DHT22;7258;50.376;8.742;2024-01-30T02:19:14;-0.80;99.90
14349;DHT22;7258;50.376;8.742;2024-01-30T02:21:19;-0.80;99.90
14349;DHT22;7258;50.376;8.742;2024-01-30T02:23:23;-0.80;99.90
14349;DHT22;7258;50.376;8.742;2024-01-30T02:25:33;-0.80;99.90
14349;DHT22;7258;50.376;8.742;2024-01-30T02:27:36;-0.80;99.90
14349;DHT22;7258;50.376;8.742;2024-01-30T02:29:39;-0.80;99.90
14349;DHT22;7258;50.376;8.742;2024-01-30T02:31:42;-0.80;99.90
14349;DHT22;7258;50.376;8.742;2024-01-30T02:33:44;-0.80;99.90
14349;DHT22;7258;50.376;8.742;2024-01-30T02:35:48;-0.90;99.90
14349;DHT22;7258;50.376;8.742;2024-01-30T02:37:52;-0.90;99.90
14349;DHT22;7258;50.376;8.742;2024-01-30T02:39:55;-0.90;99.90
14349;DHT22;7258;50.376;8.742;2024-01-30T02:41:58;-0.90;99.90
14349;DHT22;7258;50.376;8.742;2024-01-30T02:44:01;-1.00;99.90
14349;DHT22;7258;50.376;8.742;2024-01-30T02:46:04;-1.00;99.90
14349;DHT22;7258;50.376;8.742;2024-01-30T02:48:07;-1.00;99.90
14349;DHT22;7258;50.376;8.742;2024-01-30T02:50:09;-1.00;99.90
14349;DHT22;7258;50.376;8.742;2024-01-30T02:52:13;-1.00;99.90
14349;DHT22;7258;50.376;8.742;2024-01-30T02:54:16;-1.00;99.90
14349;DHT22;7258;50.376;8.742;2024-01-30T02:56:19;-1.00;99.90
14349;DHT22;7258;50.376;8.742;2024-01-30T02:58:21;-1.00;99.90
14349;DHT22;7258;50.376;8.742;2024-01-30T03:00:24;-1.00;99.90
14349;DHT22;7258;50.376;8.742;2024-01-30T03:02:27;-1.00;99.90
14349;DHT22;7258;50.376;8.742;2024-01-30T03:04:30;-1.00;99.90
14349;DHT22;7258;50.376;8.742;2024-01-30T03:06:33;-1.00;99.90
14349;DHT22;7258;50.376;8.742;2024-01-30T03:08:36;-1.00;99.90
14349;DHT22;7258;50.376;8.742;2024-01-30T03:10:40;-1.00;99.90
14349;DHT22;7258;50.376;8.742;2024-01-30T03:12:42;-1.10;99.90
14349;DHT22;7258;50.376;8.742;2024-01-30T03:14:45;-1.10;99.90
14349;DHT22;7258;50.376;8.742;2024-01-30T03:16:48;-1.20;99.90
14349;DHT22;7258;50.376;8.742;2024-01-30T03:18:51;-1.20;99.90
14349;DHT22;7258;50.376;8.742;2024-01-30T03:20:54;-1.20;99.90
14349;DHT22;7258;50.376;8.742;2024-01-30T03:22:59;-1.20;99.90
14349;DHT22;7258;50.376;8.742;2024-01-30T03:25:02;-1.20;99.90
14349;DHT22;7258;50.376;8.742;2024-01-30T03:27:06;-1.20;99.90
14349;DHT22;7258;50.376;8.742;2024-01-30T03:29:08;-1.30;99.90
14349;DHT22;7258;50.376;8.742;2024-01-30T03:31:15;-1.30;99.90
14349;DHT22;7258;50.376;8.742;2024-01-30T03:33:19;-1.30;99.90
14349;DHT22;7258;50.376;8.742;2024-01-30T03:35:21;-1.30;99.90
14349;DHT22;7258;50.376;8.742;2024-01-30T03:37:24;-1.30;99.90
14349;DHT22;7258;50.376;8.742;2024-01-30T03:39:27;-1.30;99.90
14349;DHT22;7258;50.376;8.742;2024-01-30T03:41:30;-1.20;99.90
14349;DHT22;7258;50.376;8.742;2024-01-30T03:43:33;-1.10;99.90
14349;DHT22;7258;50.376;8.742;2024-01-30T03:45:36;-0.90;99.90
14349;DHT22;7258;50.376;8.742;2024-01-30T03:47:39;-0.80;99.90
14349;DHT22;7258;50.376;8.742;2024-01-30T03:49:42;-0.70;99.90
14349;DHT22;7258;50.376;8.742;2024-01-30T03:51:45;-0.60;99.90
14349;DHT22;7258;50.376;8.742;2024-01-30T03:53:49;-0.50;99.90
14349;DHT22;7258;50.376;8.742;2024-01-30T03:55:51;-0.40;99.90
14349;DHT22;7258;50.376;8.742;2024-01-30T03:57:54;-0.30;99.90
14349;DHT22;7258;50.376;8.742;2024-01-30T03:59:59;-0.30;99.90
14349;DHT22;7258;50.376;8.742;2024-01-30T04:02:04;-0.20;99.90
14349;DHT22;7258;50.376;8.742;2024-01-30T04:04:07;-0.20;99.90
14349;DHT22;7258;50.376;8.742;2024-01-30T04:06:10;-0.10;99.90
14349;DHT22;7258;50.376;8.742;2024-01-30T04:08:13;-0.10;99.90
14349;DHT22;7258;50.376;8.742;2024-01-30T04:10:16;-0.10;99.90
14349;DHT22;7258;50.376;8.742;2024-01-30T04:12:19;-0.10;99.90
14349;DHT22;7258;50.376;8.742;2024-01-30T04:14:22;-0.10;99.90
14349;DHT22;7258;50.376;8.742;2024-01-30T04:16:26;-0.20;99.90
14349;DHT22;7258;50.376;8.742;2024-01-30T04:18:33;-0.30;99.90
14349;DHT22;7258;50.376;8.742;2024-01-30T04:20:36;-0.40;99.90
14349;DHT22;7258;50.376;8.742;2024-01-30T04:22:39;-0.40;99.90
14349;DHT22;7258;50.376;8.742;2024-01-30T04:24:41;-0.40;99.90
14349;DHT22;7258;50.376;8.742;2024-01-30T04:26:44;-0.50;99.90
14349;DHT22;7258;50.376;8.742;2024-01-30T04:28:47;-0.50;99.90
14349;DHT22;7258;50.376;8.742;2024-01-30T04:30:50;-0.60;99.90
14349;DHT22;7258;50.376;8.742;2024-01-30T04:32:54;-0.60;99.90
14349;DHT22;7258;50.376;8.742;2024-01-30T04:34:57;-0.60;99.90
14349;DHT22;7258;50.376;8.742;2024-01-30T04:37:01;-0.60;99.90
14349;DHT22;7258;50.376;8.742;2024-01-30T04:39:04;-0.70;99.90
14349;DHT22;7258;50.376;8.742;2024-01-30T04:41:07;-0.70;99.90
14349;DHT22;7258;50.376;8.742;2024-01-30T04:43:10;-0.70;99.90
14349;DHT22;7258;50.376;8.742;2024-01-30T04:45:13;-0.70;99.90
14349;DHT22;7258;50.376;8.742;2024-01-30T04:47:15;-0.60;99.90
14349;DHT22;7258;50.376;8.742;2024-01-30T04:49:19;-0.70;99.90
14349;DHT22;7258;50.376;8.742;2024-01-30T04:51:22;-0.60;99.90
14349;DHT22;7258;50.376;8.742;2024-01-30T04:53:25;-0.60;99.90
14349;DHT22;7258;50.376;8.742;2024-01-30T04:55:28;-0.60;99.90
14349;DHT22;7258;50.376;8.742;2024-01-30T04:57:32;-0.50;99.90
14349;DHT22;7258;50.376;8.742;2024-01-30T04:59:35;-0.50;99.90
14349;DHT22;7258;50.376;8.742;2024-01-30T05:01:38;-0.40;99.90
14349;DHT22;7258;50.376;8.742;2024-01-30T05:03:40;-0.40;99.90
14349;DHT22;7258;50.376;8.742;2024-01-30T05:05:44;-0.40;99.90
14349;DHT22;7258;50.376;8.742;2024-01-30T05:07:47;-0.30;99.90
14349;DHT22;7258;50.376;8.742;2024-01-30T05:09:50;-0.20;99.90
14349;DHT22;7258;50.376;8.742;2024-01-30T05:11:56;-0.10;99.90
14349;DHT22;7258;50.376;8.742;2024-01-30T05:13:59;0.00;99.90
14349;DHT22;7258;50.376;8.742;2024-01-30T05:16:03;0.10;99.90
14349;DHT22;7258;50.376;8.742;2024-01-30T05:18:06;0.30;99.90
14349;DHT22;7258;50.376;8.742;2024-01-30T05:20:10;0.40;99.90
14349;DHT22;7258;50.376;8.742;2024-01-30T05:22:15;0.50;99.90
14349;DHT22;7258;50.376;8.742;2024-01-30T05:24:20;0.50;99.90
14349;DHT22;7258;50.376;8.742;2024-01-30T05:26:25;0.60;99.90
14349;DHT22;7258;50.376;8.742;2024-01-30T05:28:29;0.60;99.90
14349;DHT22;7258;50.376;8.742;2024-01-30T05:30:32;0.60;99.90
14349;DHT22;7258;50.376;8.742;2024-01-30T05:32:34;0.60;99.90
14349;DHT22;7258;50.376;8.742;2024-01-30T05:34:37;0.70;99.90
14349;DHT22;7258;50.376;8.742;2024-01-30T05:36:40;0.70;99.90
14349;DHT22;7258;50.376;8.742;2024-01-30T05:38:45;0.70;99.90
14349;DHT22;7258;50.376;8.742;2024-01-30T05:40:48;0.70;99.90
14349;DHT22;7258;50.376;8.742;2024-01-30T05:42:50;0.70;99.90
14349;DHT22;7258;50.376;8.742;2024-01-30T05:44:53;0.70;99.90
14349;DHT22;7258;50.376;8.742;2024-01-30T05:46:56;0.80;99.90
14349;DHT22;7258;50.376;8.742;2024-01-30T05:49:00;0.80;99.90
14349;DHT22;7258;50.376;8.742;2024-01-30T05:51:03;0.90;99.90
14349;DHT22;7258;50.376;8.742;2024-01-30T05:53:06;0.90;99.90
14349;DHT22;7258;50.376;8.742;2024-01-30T05:55:11;1.00;99.90
14349;DHT22;7258;50.376;8.742;2024-01-30T05:57:14;1.00;99.90
14349;DHT22;7258;50.376;8.742;2024-01-30T05:59:16;1.00;99.90
14349;DHT22;7258;50.376;8.742;2024-01-30T06:01:20;1.10;99.90
14349;DHT22;7258;50.376;8.742;2024-01-30T06:03:23;1.10;99.90
14349;DHT22;7258;50.376;8.742;2024-01-30T06:05:26;1.10;99.90
14349;DHT22;7258;50.376;8.742;2024-01-30T06:07:29;1.10;99.90
14349;DHT22;7258;50.376;8.742;2024-01-30T06:09:37;1.10;99.90
14349;DHT22;7258;50.376;8.742;2024-01-30T06:11:42;1.10;99.90
14349;DHT22;7258;50.376;8.742;2024-01-30T06:13:44;1.10;99.90
14349;DHT22;7258;50.376;8.742;2024-01-30T06:15:49;1.10;99.90
14349;DHT22;7258;50.376;8.742;2024-01-30T06:17:52;1.10;99.90
14349;DHT22;7258;50.376;8.742;2024-01-30T06:19:55;1.10;99.90
14349;DHT22;7258;50.376;8.742;2024-01-30T06:21:58;1.10;99.90
14349;DHT22;7258;50.376;8.742;2024-01-30T06:24:00;1.10;99.90
14349;DHT22;7258;50.376;8.742;2024-01-30T06:26:03;1.10;99.90
14349;DHT22;7258;50.376;8.742;2024-01-30T06:28:08;1.10;99.90
14349;DHT22;7258;50.376;8.742;2024-01-30T06:30:12;1.10;99.90
14349;DHT22;7258;50.376;8.742;2024-01-30T06:32:16;1.00;99.90
14349;DHT22;7258;50.376;8.742;2024-01-30T06:34:18;1.00;99.90
14349;DHT22;7258;50.376;8.742;2024-01-30T06:36:22;1.00;99.90
14349;DHT22;7258;50.376;8.742;2024-01-30T06:38:25;1.10;99.90
14349;DHT22;7258;50.376;8.742;2024-01-30T06:40:28;1.00;99.90
14349;DHT22;7258;50.376;8.742;2024-01-30T06:42:31;1.00;99.90
14349;DHT22;7258;50.376;8.742;2024-01-30T06:44:35;1.00;99.90
14349;DHT22;7258;50.376;8.742;2024-01-30T06:46:39;1.00;99.90
14349;DHT22;7258;50.376;8.742;2024-01-30T06:48:42;1.00;99.90
14349;DHT22;7258;50.376;8.742;2024-01-30T06:50:46;0.90;99.90
14349;DHT22;7258;50.376;8.742;2024-01-30T06:52:50;0.90;99.90
14349;DHT22;7258;50.376;8.742;2024-01-30T06:54:52;0.90;99.90
14349;DHT22;7258;50.376;8.742;2024-01-30T06:56:56;0.90;99.90
14349;DHT22;7258;50.376;8.742;2024-01-30T06:58:59;0.90;99.90
14349;DHT22;7258;50.376;8.742;2024-01-30T07:01:03;0.90;99.90
14349;DHT22;7258;50.376;8.742;2024-01-30T07:03:06;0.90;99.90
14349;DHT22;7258;50.376;8.742;2024-01-30T07:05:10;0.90;99.90
14349;DHT22;7258;50.376;8.742;2024-01-30T07:07:13;0.90;99.90
14349;DHT22;7258;50.376;8.742;2024-01-30T07:09:16;0.90;99.90
14349;DHT22;7258;50.376;8.742;2024-01-30T07:11:20;0.90;99.90
14349;DHT22;7258;50.376;8.742;2024-01-30T07:13:23;0.90;99.90
14349;DHT22;7258;50.376;8.742;2024-01-30T07:15:26;1.00;99.90
14349;DHT22;7258;50.376;8.742;2024-01-30T07:17:30;1.00;99.90
14349;DHT22;7258;50.376;8.742;2024-01-30T07:19:33;1.00;99.90
14349;DHT22;7258;50.376;8.742;2024-01-30T07:21:36;1.00;99.90
14349;DHT22;7258;50.376;8.742;2024-01-30T07:23:40;1.00;99.90
14349;DHT22;7258;50.376;8.742;2024-01-30T07:25:43;1.00;99.90
14349;DHT22;7258;50.376;8.742;2024-01-30T07:27:50;1.00;99.90
14349;DHT22;7258;50.376;8.742;2024-01-30T07:29:53;1.00;99.90
14349;DHT22;7258;50.376;8.742;2024-01-30T07:31:56;1.00;99.90
14349;DHT22;7258;50.376;8.742;2024-01-30T07:34:00;1.10;99.90
14349;DHT22;7258;50.376;8.742;2024-01-30T07:36:05;1.10;99.90
14349;DHT22;7258;50.376;8.742;2024-01-30T07:38:08;1.10;99.90
14349;DHT22;7258;50.376;8.742;2024-01-30T07:40:11;1.20;99.90
14349;DHT22;7258;50.376;8.742;2024-01-30T07:42:14;1.20;99.90
14349;DHT22;7258;50.376;8.742;2024-01-30T07:44:16;1.20;99.90
14349;DHT22;7258;50.376;8.742;2024-01-30T07:46:19;1.30;99.90
14349;DHT22;7258;50.376;8.742;2024-01-30T07:48:22;1.30;99.90
14349;DHT22;7258;50.376;8.742;2024-01-30T07:50:27;1.40;99.90
14349;DHT22;7258;50.376;8.742;2024-01-30T07:52:30;1.40;99.90
14349;DHT22;7258;50.376;8.742;2024-01-30T07:54:33;1.40;99.90
14349;DHT22;7258;50.376;8.742;2024-01-30T07:56:35;1.50;99.90
14349;DHT22;7258;50.376;8.742;2024-01-30T07:58:38;1.50;99.90
14349;DHT22;7258;50.376;8.742;2024-01-30T08:00:41;1.50;99.90
14349;DHT22;7258;50.376;8.742;2024-01-30T08:02:44;1.50;99.90
14349;DHT22;7258;50.376;8.742;2024-01-30T08:04:47;1.60;99.90
14349;DHT22;7258;50.376;8.742;2024-01-30T08:06:52;1.60;99.90
14349;DHT22;7258;50.376;8.742;2024-01-30T08:08:55;1.60;99.90
14349;DHT22;7258;50.376;8.742;2024-01-30T08:11:00;1.70;99.90
14349;DHT22;7258;50.376;8.742;2024-01-30T08:13:03;1.70;99.90
14349;DHT22;7258;50.376;8.742;2024-01-30T08:15:07;1.70;99.90
14349;DHT22;7258;50.376;8.742;2024-01-30T08:17:10;1.80;99.90
14349;DHT22;7258;50.376;8.742;2024-01-30T08:19:14;1.80;99.90
14349;DHT22;7258;50.376;8.742;2024-01-30T08:21:16;1.90;99.90
14349;DHT22;7258;50.376;8.742;2024-01-30T08:23:21;1.90;99.90
14349;DHT22;7258;50.376;8.742;2024-01-30T08:25:23;2.00;99.90
14349;DHT22;7258;50.376;8.742;2024-01-30T08:27:27;2.10;99.90
14349;DHT22;7258;50.376;8.742;2024-01-30T08:29:30;2.10;99.90
14349;DHT22;7258;50.376;8.742;2024-01-30T08:31:33;2.20;99.90
14349;DHT22;7258;50.376;8.742;2024-01-30T08:33:36;2.30;99.90
14349;DHT22;7258;50.376;8.742;2024-01-30T08:35:40;2.30;99.90
14349;DHT22;7258;50.376;8.742;2024-01-30T08:37:44;2.40;99.90
14349;DHT22;7258;50.376;8.742;2024-01-30T08:39:48;2.40;99.90
14349;DHT22;7258;50.376;8.742;2024-01-30T08:41:51;2.50;99.90
14349;DHT22;7258;50.376;8.742;2024-01-30T08:43:54;2.50;99.90
14349;DHT22;7258;50.376;8.742;2024-01-30T08:45:58;2.60;99.90
14349;DHT22;7258;50.376;8.742;2024-01-30T08:48:02;2.60;99.90
14349;DHT22;7258;50.376;8.742;2024-01-30T08:50:06;2.70;99.90
14349;DHT22;7258;50.376;8.742;2024-01-30T08:52:09;2.80;99.90
14349;DHT22;7258;50.376;8.742;2024-01-30T08:54:12;2.80;99.90
14349;DHT22;7258;50.376;8.742;2024-01-30T08:56:16;2.90;99.90
14349;DHT22;7258;50.376;8.742;2024-01-30T08:58:19;2.90;99.90
14349;DHT22;7258;50.376;8.742;2024-01-30T09:00:21;3.00;99.90
14349;DHT22;7258;50.376;8.742;2024-01-30T09:02:24;3.00;99.90
14349;DHT22;7258;50.376;8.742;2024-01-30T09:04:27;3.10;99.90
14349;DHT22;7258;50.376;8.742;2024-01-30T09:06:30;3.10;99.90
14349;DHT22;7258;50.376;8.742;2024-01-30T09:08:33;3.20;99.90
14349;DHT22;7258;50.376;8.742;2024-01-30T09:10:36;3.20;99.90
14349;DHT22;7258;50.376;8.742;2024-01-30T09:12:40;3.30;99.90
14349;DHT22;7258;50.376;8.742;2024-01-30T09:14:43;3.30;99.90
14349;DHT22;7258;50.376;8.742;2024-01-30T09:16:46;3.40;99.90
14349;DHT22;7258;50.376;8.742;2024-01-30T09:18:50;3.40;99.90
14349;DHT22;7258;50.376;8.742;2024-01-30T09:20:52;3.40;99.90
14349;DHT22;7258;50.376;8.742;2024-01-30T09:22:55;3.40;99.90
14349;DHT22;7258;50.376;8.742;2024-01-30T09:24:58;3.40;99.90
14349;DHT22;7258;50.376;8.742;2024-01-30T09:27:01;3.50;99.90
14349;DHT22;7258;50.376;8.742;2024-01-30T09:29:06;3.50;99.90
14349;DHT22;7258;50.376;8.742;2024-01-30T09:31:10;3.60;99.90
14349;DHT22;7258;50.376;8.742;2024-01-30T09:33:12;3.60;99.90
14349;DHT22;7258;50.376;8.742;2024-01-30T09:35:15;3.70;99.90
14349;DHT22;7258;50.376;8.742;2024-01-30T09:37:18;3.70;99.90
14349;DHT22;7258;50.376;8.742;2024-01-30T09:39:24;3.80;99.90
14349;DHT22;7258;50.376;8.742;2024-01-30T09:41:27;3.80;99.90
14349;DHT22;7258;50.376;8.742;2024-01-30T09:43:33;3.80;99.90
14349;DHT22;7258;50.376;8.742;2024-01-30T09:45:38;3.90;99.90
14349;DHT22;7258;50.376;8.742;2024-01-30T09:47:43;3.90;99.90
14349;DHT22;7258;50.376;8.742;2024-01-30T09:49:46;4.00;99.90
14349;DHT22;7258;50.376;8.742;2024-01-30T09:51:50;4.00;99.90
14349;DHT22;7258;50.376;8.742;2024-01-30T09:53:54;4.10;99.90
14349;DHT22;7258;50.376;8.742;2024-01-30T09:55:57;4.10;99.90
14349;DHT22;7258;50.376;8.742;2024-01-30T09:58:00;4.10;99.90
14349;DHT22;7258;50.376;8.742;2024-01-30T10:00:04;4.20;99.90
14349;DHT22;7258;50.376;8.742;2024-01-30T10:02:11;4.20;99.90
14349;DHT22;7258;50.376;8.742;2024-01-30T10:04:14;4.30;99.90
14349;DHT22;7258;50.376;8.742;2024-01-30T10:06:18;4.30;99.90
14349;DHT22;7258;50.376;8.742;2024-01-30T10:08:23;4.40;99.90
14349;DHT22;7258;50.376;8.742;2024-01-30T10:10:26;4.40;99.90
14349;DHT22;7258;50.376;8.742;2024-01-30T10:12:29;4.50;99.90
14349;DHT22;7258;50.376;8.742;2024-01-30T10:14:32;4.50;99.90
14349;DHT22;7258;50.376;8.742;2024-01-30T10:16:35;4.60;99.90
14349;DHT22;7258;50.376;8.742;2024-01-30T10:18:41;4.60;99.90
14349;DHT22;7258;50.376;8.742;2024-01-30T10:20:46;4.70;99.90
14349;DHT22;7258;50.376;8.742;2024-01-30T10:22:49;4.70;99.90
14349;DHT22;7258;50.376;8.742;2024-01-30T10:24:52;4.70;99.90
14349;DHT22;7258;50.376;8.742;2024-01-30T10:26:55;4.70;99.90
14349;DHT22;7258;50.376;8.742;2024-01-30T10:28:58;4.70;99.90
14349;DHT22;7258;50.376;8.742;2024-01-30T10:31:02;4.70;99.90
14349;DHT22;7258;50.376;8.742;2024-01-30T10:33:08;4.70;99.90
14349;DHT22;7258;50.376;8.742;2024-01-30T10:35:12;4.70;99.90
14349;DHT22;7258;50.376;8.742;2024-01-30T10:37:15;4.80;99.90
14349;DHT22;7258;50.376;8.742;2024-01-30T10:39:20;4.80;99.90
14349;DHT22;7258;50.376;8.742;2024-01-30T10:41:27;4.90;99.90
14349;DHT22;7258;50.376;8.742;2024-01-30T10:43:31;4.80;99.90
14349;DHT22;7258;50.376;8.742;2024-01-30T10:45:35;4.90;99.90
14349;DHT22;7258;50.376;8.742;2024-01-30T10:47:50;4.90;99.90
14349;DHT22;7258;50.376;8.742;2024-01-30T10:49:54;5.00;99.90
14349;DHT22;7258;50.376;8.742;2024-01-30T10:51:58;5.00;99.90
14349;DHT22;7258;50.376;8.742;2024-01-30T10:54:03;5.00;99.90
14349;DHT22;7258;50.376;8.742;2024-01-30T10:56:08;5.00;99.90
14349;DHT22;7258;50.376;8.742;2024-01-30T10:58:13;5.10;99.90
14349;DHT22;7258;50.376;8.742;2024-01-30T11:00:18;5.10;99.90
14349;DHT22;7258;50.376;8.742;2024-01-30T11:02:24;5.10;99.90
14349;DHT22;7258;50.376;8.742;2024-01-30T11:04:35;5.20;99.90
14349;DHT22;7258;50.376;8.742;2024-01-30T11:06:41;5.30;99.90
14349;DHT22;7258;50.376;8.742;2024-01-30T11:09:00;5.30;99.90
14349;DHT22;7258;50.376;8.742;2024-01-30T11:11:09;5.30;99.90
14349;DHT22;7258;50.376;8.742;2024-01-30T11:13:16;5.30;99.90
14349;DHT22;7258;50.376;8.742;2024-01-30T11:15:21;5.30;99.90
14349;DHT22;7258;50.376;8.742;2024-01-30T11:17:27;5.40;99.90
14349;DHT22;7258;50.376;8.742;2024-01-30T11:19:33;5.40;99.90
14349;DHT22;7258;50.376;8.742;2024-01-30T11:21:41;5.40;99.90
14349;DHT22;7258;50.376;8.742;2024-01-30T11:23:44;5.40;99.90
14349;DHT22;7258;50.376;8.742;2024-01-30T11:25:49;5.50;99.90
14349;DHT22;7258;50.376;8.742;2024-01-30T11:27:55;5.50;99.90
14349;DHT22;7258;50.376;8.742;2024-01-30T11:30:01;5.50;99.90
14349;DHT22;7258;50.376;8.742;2024-01-30T11:32:05;5.50;99.90
14349;DHT22;7258;50.376;8.742;2024-01-30T11:34:08;5.50;99.90
14349;DHT22;7258;50.376;8.742;2024-01-30T11:36:13;5.60;99.90
14349;DHT22;7258;50.376;8.742;2024-01-30T11:38:19;5.60;99.90
14349;DHT22;7258;50.376;8.742;2024-01-30T11:40:22;5.60;99.90
14349;DHT22;7258;50.376;8.742;2024-01-30T11:42:27;5.60;99.90
14349;DHT22;7258;50.376;8.742;2024-01-30T11:44:31;5.70;99.90
14349;DHT22;7258;50.376;8.742;2024-01-30T11:46:34;5.70;99.90
14349;DHT22;7258;50.376;8.742;2024-01-30T11:48:37;5.70;99.90
14349;DHT22;7258;50.376;8.742;2024-01-30T11:50:40;5.80;99.90
14349;DHT22;7258;50.376;8.742;2024-01-30T11:52:43;5.80;99.90
14349;DHT22;7258;50.376;8.742;2024-01-30T11:54:46;5.90;99.90
14349;DHT22;7258;50.376;8.742;2024-01-30T11:56:50;5.90;99.90
14349;DHT22;7258;50.376;8.742;2024-01-30T11:58:54;6.00;99.90
14349;DHT22;7258;50.376;8.742;2024-01-30T12:00:58;6.10;99.90
14349;DHT22;7258;50.376;8.742;2024-01-30T12:03:02;6.20;99.90
14349;DHT22;7258;50.376;8.742;2024-01-30T12:05:07;6.20;99.90
14349;DHT22;7258;50.376;8.742;2024-01-30T12:07:11;6.30;99.90
14349;DHT22;7258;50.376;8.742;2024-01-30T12:09:14;6.30;99.90
14349;DHT22;7258;50.376;8.742;2024-01-30T12:11:18;6.30;99.90
14349;DHT22;7258;50.376;8.742;2024-01-30T12:13:22;6.30;99.90
14349;DHT22;7258;50.376;8.742;2024-01-30T12:15:26;6.30;99.90
14349;DHT22;7258;50.376;8.742;2024-01-30T12:17:31;6.40;99.90
14349;DHT22;7258;50.376;8.742;2024-01-30T12:19:33;6.50;99.90
14349;DHT22;7258;50.376;8.742;2024-01-30T12:21:38;6.60;99.90
14349;DHT22;7258;50.376;8.742;2024-01-30T12:23:41;6.60;99.90
14349;DHT22;7258;50.376;8.742;2024-01-30T12:25:44;6.60;99.90
14349;DHT22;7258;50.376;8.742;2024-01-30T12:27:48;6.70;99.90
14349;DHT22;7258;50.376;8.742;2024-01-30T12:29:56;6.70;99.90
14349;DHT22;7258;50.376;8.742;2024-01-30T12:32:00;6.70;99.90
14349;DHT22;7258;50.376;8.742;2024-01-30T12:34:03;6.80;99.90
14349;DHT22;7258;50.376;8.742;2024-01-30T12:36:06;6.80;99.90
14349;DHT22;7258;50.376;8.742;2024-01-30T12:38:09;6.80;99.90
14349;DHT22;7258;50.376;8.742;2024-01-30T12:40:14;6.80;99.90
14349;DHT22;7258;50.376;8.742;2024-01-30T12:42:19;6.80;99.90
14349;DHT22;7258;50.376;8.742;2024-01-30T12:44:23;6.90;99.90
14349;DHT22;7258;50.376;8.742;2024-01-30T12:46:28;6.90;99.90
14349;DHT22;7258;50.376;8.742;2024-01-30T12:48:33;6.90;99.90
14349;DHT22;7258;50.376;8.742;2024-01-30T12:50:35;6.90;99.90
14349;DHT22;7258;50.376;8.742;2024-01-30T12:52:38;6.90;99.90
14349;DHT22;7258;50.376;8.742;2024-01-30T12:54:41;6.90;99.90
14349;DHT22;7258;50.376;8.742;2024-01-30T12:56:44;7.00;99.90
14349;DHT22;7258;50.376;8.742;2024-01-30T12:58:47;7.00;99.90
14349;DHT22;7258;50.376;8.742;2024-01-30T13:00:54;7.00;99.90
14349;DHT22;7258;50.376;8.742;2024-01-30T13:02:58;7.00;99.90
14349;DHT22;7258;50.376;8.742;2024-01-30T13:05:03;6.90;99.90
14349;DHT22;7258;50.376;8.742;2024-01-30T13:07:06;6.90;99.90
14349;DHT22;7258;50.376;8.742;2024-01-30T13:09:08;6.90;99.90
14349;DHT22;7258;50.376;8.742;2024-01-30T13:11:12;6.90;99.90
14349;DHT22;7258;50.376;8.742;2024-01-30T13:13:22;6.90;99.90
14349;DHT22;7258;50.376;8.742;2024-01-30T13:15:25;7.00;99.90
14349;DHT22;7258;50.376;8.742;2024-01-30T13:17:28;7.00;99.90
14349;DHT22;7258;50.376;8.742;2024-01-30T13:19:31;7.00;99.90
14349;DHT22;7258;50.376;8.742;2024-01-30T13:21:36;7.00;99.90
14349;DHT22;7258;50.376;8.742;2024-01-30T13:23:39;7.00;99.90